Time;durP1;ratioP1;P1;durP2;ratioP2;P2;SDS_P1;SDS_P2;PMS_P1;PMS_P2;Temp;Humidity;BMP_temperature;BMP_pressure;BME280_temperature;BME280_humidity;BME280_pressure;Samples;Min_cycle;Max_cycle;Signal;HPM_P1;HPM_P2
2022/12/26 00:00:35;;;;;;;8.80;6.13;;;10.00;99.90;;;;;;4968599;28;20038;-76
2022/12/26 00:03:02;;;;;;;8.57;6.40;;;10.00;99.90;;;;;;4970253;28;20515;-76
2022/12/26 00:05:33;;;;;;;10.38;7.00;;;9.90;99.90;;;;;;4949745;28;20046;-76
2022/12/26 00:08:00;;;;;;;11.27;7.43;;;9.80;99.90;;;;;;4958577;28;20049;-76
2022/12/26 00:10:26;;;;;;;12.52;8.27;;;9.80;99.90;;;;;;4963667;28;20056;-76
2022/12/26 00:12:53;;;;;;;11.27;7.25;;;9.80;99.90;;;;;;4960832;28;20128;-76
2022/12/26 00:15:40;;;;;;;11.73;7.82;;;9.80;99.90;;;;;;4961973;28;20481;-76
2022/12/26 00:18:07;;;;;;;9.25;6.57;;;9.80;99.90;;;;;;4951585;28;20477;-76
2022/12/26 00:20:34;;;;;;;9.50;6.70;;;9.70;99.90;;;;;;4956071;28;20132;-76
2022/12/26 00:23:00;;;;;;;10.35;6.82;;;9.70;99.90;;;;;;4961149;28;20419;-76
2022/12/26 00:25:27;;;;;;;12.10;7.40;;;9.60;99.90;;;;;;4962842;28;20049;-76
2022/12/26 00:27:54;;;;;;;8.48;5.93;;;9.60;99.90;;;;;;4961563;28;20051;-75
2022/12/26 00:30:21;;;;;;;12.57;7.00;;;9.60;99.90;;;;;;4958524;28;20053;-75
2022/12/26 00:32:48;;;;;;;14.18;6.93;;;9.60;99.90;;;;;;4953366;28;20133;-76
2022/12/26 00:35:14;;;;;;;10.70;7.32;;;9.60;99.90;;;;;;4962771;28;20041;-75
2022/12/26 00:37:41;;;;;;;13.88;7.35;;;9.50;99.90;;;;;;4950955;28;20042;-76
2022/12/26 00:40:08;;;;;;;11.15;7.00;;;9.50;99.90;;;;;;4960614;28;20034;-76
2022/12/26 00:42:35;;;;;;;12.07;8.13;;;9.50;99.90;;;;;;4945133;28;20047;-76
2022/12/26 00:45:02;;;;;;;13.57;8.52;;;9.50;99.90;;;;;;4965024;28;20282;-76
2022/12/26 00:47:29;;;;;;;14.07;7.95;;;9.50;99.90;;;;;;4973203;28;20404;-76
2022/12/26 00:49:56;;;;;;;16.70;8.75;;;9.50;99.90;;;;;;4947135;28;20101;-77
2022/12/26 00:52:41;;;;;;;15.90;11.23;;;9.50;99.90;;;;;;4953138;28;20501;-78
2022/12/26 00:55:08;;;;;;;17.75;10.40;;;9.50;99.90;;;;;;4965517;28;20101;-76
2022/12/26 00:57:35;;;;;;;18.85;11.73;;;9.60;99.90;;;;;;4945547;28;20050;-76
2022/12/26 01:00:02;;;;;;;17.23;13.10;;;9.60;99.90;;;;;;4954084;28;20133;-76
2022/12/26 01:02:38;;;;;;;18.05;11.23;;;9.60;99.90;;;;;;4967591;28;20045;-76
2022/12/26 01:05:10;;;;;;;17.33;11.35;;;9.60;99.90;;;;;;4968021;28;20038;-76
2022/12/26 01:07:38;;;;;;;19.20;12.20;;;9.60;99.90;;;;;;4935405;28;20204;-76
2022/12/26 01:10:27;;;;;;;22.08;11.85;;;9.60;99.90;;;;;;4970334;28;20039;-76
2022/12/26 01:12:54;;;;;;;25.27;14.45;;;9.60;99.90;;;;;;4957620;28;20599;-76
2022/12/26 01:15:21;;;;;;;18.00;12.65;;;9.70;99.90;;;;;;4941000;28;20055;-75
2022/12/26 01:17:47;;;;;;;22.08;15.05;;;9.60;99.90;;;;;;4938137;28;20070;-75
2022/12/26 01:20:15;;;;;;;21.98;14.65;;;9.60;99.90;;;;;;4963660;28;20185;-75
2022/12/26 01:22:42;;;;;;;22.08;14.60;;;9.60;99.90;;;;;;4951139;28;20320;-75
2022/12/26 01:25:10;;;;;;;20.15;13.82;;;9.60;99.90;;;;;;4967622;28;20047;-76
2022/12/26 01:27:37;;;;;;;24.52;14.68;;;9.60;99.90;;;;;;4961412;28;20043;-75
2022/12/26 01:30:05;;;;;;;19.73;12.30;;;9.60;99.90;;;;;;4965758;28;20470;-75
2022/12/26 01:32:31;;;;;;;20.08;11.70;;;9.60;99.90;;;;;;4961895;28;20050;-75
2022/12/26 01:34:58;;;;;;;18.65;11.57;;;9.70;99.90;;;;;;4966569;28;20236;-75
2022/12/26 01:37:25;;;;;;;17.02;11.88;;;9.60;99.90;;;;;;4964039;28;20129;-76
2022/12/26 01:39:51;;;;;;;20.77;13.55;;;9.60;99.90;;;;;;4961354;28;20439;-76
2022/12/26 01:42:21;;;;;;;23.25;13.98;;;9.60;99.90;;;;;;4955764;28;20658;-76
2022/12/26 01:45:21;;;;;;;16.55;10.75;;;9.60;99.90;;;;;;4969946;28;20550;-75
2022/12/26 01:48:11;;;;;;;17.00;10.27;;;9.60;99.90;;;;;;4964942;28;20050;-76
2022/12/26 01:50:53;;;;;;;20.73;12.45;;;9.60;99.90;;;;;;4959812;28;20313;-76
2022/12/26 01:53:27;;;;;;;13.63;8.98;;;9.60;99.90;;;;;;4967427;28;20045;-76
2022/12/26 01:56:04;;;;;;;11.43;7.87;;;9.60;99.90;;;;;;4955939;28;20047;-76
2022/12/26 01:58:36;;;;;;;13.73;8.43;;;9.60;99.90;;;;;;4962723;28;20450;-77
2022/12/26 02:01:06;;;;;;;12.70;8.07;;;9.60;99.90;;;;;;4955237;28;20656;-75
2022/12/26 02:06:21;;;;;;;10.73;7.43;;;9.50;99.90;;;;;;4960073;28;20042;-76
2022/12/26 02:08:48;;;;;;;10.15;6.80;;;9.60;99.90;;;;;;4964542;28;20729;-76
2022/12/26 02:11:33;;;;;;;13.25;7.93;;;9.60;99.90;;;;;;4947327;28;20211;-76
2022/12/26 02:14:01;;;;;;;11.68;8.15;;;9.60;99.90;;;;;;4961085;28;20463;-76
2022/12/26 02:16:28;;;;;;;12.23;7.60;;;9.60;99.90;;;;;;4957190;28;20086;-76
2022/12/26 02:18:55;;;;;;;13.95;9.32;;;9.60;99.90;;;;;;4948010;28;20047;-76
2022/12/26 02:21:52;;;;;;;17.83;10.07;;;9.60;99.90;;;;;;4959320;28;20126;-76
2022/12/26 02:24:46;;;;;;;19.88;11.02;;;9.60;99.90;;;;;;4961427;28;20057;-75
2022/12/26 02:27:29;;;;;;;22.60;12.60;;;9.70;99.90;;;;;;4962910;28;20121;-76
2022/12/26 02:30:04;;;;;;;26.65;13.80;;;9.70;99.90;;;;;;4964728;28;20050;-75
2022/12/26 02:33:10;;;;;;;26.67;15.90;;;9.70;99.90;;;;;;4954829;28;20050;-77
2022/12/26 02:36:14;;;;;;;33.87;16.83;;;9.70;99.90;;;;;;4942286;28;20043;-77
2022/12/26 02:39:19;;;;;;;25.80;14.38;;;9.70;99.90;;;;;;4940135;28;20047;-77
2022/12/26 02:42:23;;;;;;;25.77;13.43;;;9.70;99.90;;;;;;4948547;28;20039;-77
2022/12/26 02:48:16;;;;;;;15.50;9.40;;;9.70;99.90;;;;;;4970697;28;20421;-76
2022/12/26 03:15:07;;;;;;;16.30;8.32;;;9.70;99.90;;;;;;4965198;28;20062;-76
2022/12/26 03:17:39;;;;;;;19.42;9.52;;;9.70;99.90;;;;;;4977371;28;20133;-77
2022/12/26 03:20:18;;;;;;;16.73;9.85;;;9.70;99.90;;;;;;4950603;28;20046;-76
2022/12/26 03:22:56;;;;;;;17.02;9.77;;;9.70;99.90;;;;;;4969166;28;20229;-75
2022/12/26 03:28:21;;;;;;;20.20;12.50;;;9.70;99.90;;;;;;4962583;28;20039;-76
2022/12/26 03:30:48;;;;;;;20.60;10.95;;;9.70;99.90;;;;;;4985527;28;20130;-76
2022/12/26 03:36:27;;;;;;;29.02;15.07;;;9.70;99.90;;;;;;4991996;28;20078;-76
2022/12/26 03:39:13;;;;;;;30.40;16.20;;;9.70;99.90;;;;;;4983675;28;20046;-76
2022/12/26 04:20:28;;;;;;;43.00;22.55;;;9.80;99.90;;;;;;4960253;28;20130;-75
2022/12/26 04:46:20;;;;;;;20.15;12.32;;;9.70;99.90;;;;;;4973423;28;20129;-75
2022/12/26 04:51:35;;;;;;;30.52;17.67;;;9.70;99.90;;;;;;4976104;28;20145;-76
2022/12/26 04:54:03;;;;;;;28.73;14.80;;;9.60;99.90;;;;;;4972459;28;20137;-76
2022/12/26 04:56:30;;;;;;;34.17;19.13;;;9.60;99.90;;;;;;4975240;28;20051;-76
2022/12/26 04:58:57;;;;;;;42.53;20.73;;;9.60;99.90;;;;;;4975740;28;20455;-76
2022/12/26 05:09:52;;;;;;;41.55;21.88;;;9.60;99.90;;;;;;4964378;28;20065;-77
2022/12/26 05:12:19;;;;;;;33.08;18.95;;;9.60;99.90;;;;;;4954481;28;20082;-76
2022/12/26 05:14:45;;;;;;;25.05;15.25;;;9.50;99.90;;;;;;4970595;28;20042;-76
2022/12/26 05:31:05;;;;;;;47.38;28.27;;;9.50;99.90;;;;;;4957696;28;20221;-76
2022/12/26 05:36:20;;;;;;;41.17;25.75;;;9.50;99.90;;;;;;4959306;28;20137;-75
2022/12/26 05:38:50;;;;;;;38.47;24.13;;;9.50;99.90;;;;;;4964305;28;20053;-76
2022/12/26 05:41:17;;;;;;;39.88;22.80;;;9.50;99.90;;;;;;4960273;28;20039;-76
2022/12/26 05:43:43;;;;;;;34.95;19.80;;;9.50;99.90;;;;;;4962195;28;20047;-75
2022/12/26 05:46:10;;;;;;;36.58;21.10;;;9.50;99.90;;;;;;4972551;28;20042;-75
2022/12/26 05:48:37;;;;;;;40.45;22.48;;;9.50;99.90;;;;;;4969077;28;20065;-75
2022/12/26 05:51:04;;;;;;;40.42;23.58;;;9.50;99.90;;;;;;4960860;28;20057;-75
2022/12/26 05:53:32;;;;;;;34.28;19.63;;;9.50;99.90;;;;;;4958576;28;20043;-75
2022/12/26 05:56:09;;;;;;;41.83;22.70;;;9.50;99.90;;;;;;4966888;28;20057;-75
2022/12/26 05:58:36;;;;;;;34.17;20.33;;;9.40;99.90;;;;;;4962512;28;20059;-75
2022/12/26 06:01:16;;;;;;;26.58;16.52;;;9.40;99.90;;;;;;4969173;28;20038;-75
2022/12/26 06:03:46;;;;;;;25.63;15.95;;;9.40;99.90;;;;;;4978299;28;20046;-75
2022/12/26 06:06:14;;;;;;;22.52;13.50;;;9.40;99.90;;;;;;4959548;28;20038;-75
2022/12/26 06:08:40;;;;;;;23.33;14.07;;;9.30;99.90;;;;;;4961654;28;20141;-75
2022/12/26 06:11:12;;;;;;;24.17;14.70;;;9.30;99.90;;;;;;4968679;28;20049;-75
2022/12/26 06:13:39;;;;;;;24.05;14.23;;;9.30;99.90;;;;;;4966918;28;20057;-75
2022/12/26 06:16:08;;;;;;;22.05;15.23;;;9.30;99.90;;;;;;4953383;28;20043;-74
2022/12/26 06:18:36;;;;;;;23.27;16.00;;;9.30;99.90;;;;;;4963982;28;20055;-75
2022/12/26 06:21:07;;;;;;;22.85;15.07;;;9.30;99.90;;;;;;4961740;28;20484;-75
2022/12/26 06:23:35;;;;;;;24.27;17.13;;;9.30;99.90;;;;;;4964478;28;20047;-75
2022/12/26 06:26:02;;;;;;;27.00;18.60;;;9.30;99.90;;;;;;4967179;28;20730;-75
2022/12/26 06:28:29;;;;;;;24.67;17.33;;;9.30;99.90;;;;;;4962005;28;20350;-75
2022/12/26 06:31:07;;;;;;;27.58;19.05;;;9.30;99.90;;;;;;4967772;28;20412;-75
2022/12/26 06:33:34;;;;;;;30.35;19.20;;;9.30;99.90;;;;;;4958541;28;20137;-75
2022/12/26 06:36:15;;;;;;;30.83;20.02;;;9.30;99.90;;;;;;4965865;28;20043;-74
2022/12/26 06:38:42;;;;;;;34.53;20.13;;;9.30;99.90;;;;;;4961365;28;20046;-75
2022/12/26 06:41:12;;;;;;;30.00;19.02;;;9.30;99.90;;;;;;4953292;28;20061;-74
2022/12/26 06:43:39;;;;;;;36.42;22.00;;;9.30;99.90;;;;;;4954353;28;20177;-75
2022/12/26 06:46:08;;;;;;;35.15;20.48;;;9.30;99.90;;;;;;4965194;28;20038;-74
2022/12/26 06:48:38;;;;;;;26.90;16.65;;;9.20;99.90;;;;;;4947323;28;20053;-75
2022/12/26 06:51:09;;;;;;;26.45;15.98;;;9.20;99.90;;;;;;4966620;28;20145;-74
2022/12/26 06:53:36;;;;;;;26.67;16.58;;;9.20;99.90;;;;;;4966760;28;20062;-75
2022/12/26 06:56:11;;;;;;;25.27;15.18;;;9.20;99.90;;;;;;4971246;28;20417;-75
2022/12/26 06:58:38;;;;;;;;;;;9.20;99.90;;;;;;4950269;28;20060;-74
2022/12/26 07:01:15;;;;;;;25.10;15.63;;;9.20;99.90;;;;;;4961585;28;20408;-75
2022/12/26 07:03:43;;;;;;;25.02;16.35;;;9.20;99.90;;;;;;4957398;28;20042;-74
2022/12/26 07:06:20;;;;;;;;;;;9.20;99.90;;;;;;4973561;28;20456;-74
2022/12/26 07:08:46;;;;;;;22.02;14.25;;;9.10;99.90;;;;;;4962442;28;19929;-74
2022/12/26 07:11:15;;;;;;;23.95;14.48;;;9.10;99.90;;;;;;4966759;28;20046;-75
2022/12/26 07:13:42;;;;;;;21.75;13.18;;;9.10;99.90;;;;;;4962617;28;20043;-75
2022/12/26 07:16:12;;;;;;;20.45;11.93;;;9.10;99.90;;;;;;4973218;28;20038;-74
2022/12/26 07:18:39;;;;;;;24.13;13.18;;;9.10;99.90;;;;;;4979391;28;20050;-74
2022/12/26 07:21:08;;;;;;;19.48;11.88;;;9.00;99.90;;;;;;4960413;28;20259;-74
2022/12/26 07:23:36;;;;;;;21.35;12.95;;;9.00;99.90;;;;;;4965099;28;20089;-74
2022/12/26 07:26:03;;;;;;;22.92;13.93;;;9.00;99.90;;;;;;4962845;28;20054;-75
2022/12/26 07:28:30;;;;;;;19.73;10.70;;;8.90;99.90;;;;;;4959014;28;20046;-74
2022/12/26 07:30:59;;;;;;;15.65;9.25;;;9.00;99.90;;;;;;4966036;28;20337;-74
2022/12/26 07:33:27;;;;;;;15.30;10.38;;;8.90;99.90;;;;;;4981397;28;20070;-74
2022/12/26 07:35:57;;;;;;;13.75;9.68;;;8.90;99.90;;;;;;4983745;28;20563;-74
2022/12/26 07:38:24;;;;;;;16.23;10.88;;;8.90;99.90;;;;;;4975589;28;20050;-74
2022/12/26 07:40:53;;;;;;;18.67;12.00;;;8.90;99.90;;;;;;4983781;28;20783;-74
2022/12/26 07:43:20;;;;;;;15.20;9.63;;;8.90;99.90;;;;;;4969369;28;20558;-74
2022/12/26 07:45:49;;;;;;;14.25;9.82;;;8.80;99.90;;;;;;4965878;28;20547;-74
2022/12/26 07:48:16;;;;;;;12.07;7.85;;;8.80;99.90;;;;;;4965433;28;20046;-74
2022/12/26 07:50:45;;;;;;;16.15;8.07;;;8.80;99.90;;;;;;4967976;28;20045;-74
2022/12/26 07:53:13;;;;;;;12.10;7.75;;;8.80;99.90;;;;;;4960499;28;20046;-74
2022/12/26 07:55:40;;;;;;;12.73;9.15;;;8.80;99.90;;;;;;4968061;28;20057;-74
2022/12/26 07:58:07;;;;;;;11.45;7.40;;;8.70;99.90;;;;;;4965518;28;20571;-74
2022/12/26 08:00:34;;;;;;;10.80;7.80;;;8.80;99.90;;;;;;4938868;28;20122;-74
2022/12/26 08:03:00;;;;;;;12.60;8.48;;;8.80;99.90;;;;;;4965605;28;20265;-74
2022/12/26 08:05:34;;;;;;;16.23;10.13;;;8.80;99.90;;;;;;4968311;28;20064;-74
2022/12/26 08:08:01;;;;;;;13.52;9.55;;;8.80;99.90;;;;;;4966650;28;20078;-74
2022/12/26 08:10:27;;;;;;;13.30;8.57;;;8.70;99.90;;;;;;4964848;28;20070;-74
2022/12/26 08:12:54;;;;;;;12.23;9.10;;;8.70;99.90;;;;;;4960966;28;20038;-74
2022/12/26 08:15:21;;;;;;;10.80;7.35;;;8.80;99.90;;;;;;4970508;28;20046;-74
2022/12/26 08:17:47;;;;;;;13.20;7.82;;;8.80;99.90;;;;;;4957745;28;20047;-74
2022/12/26 08:20:14;;;;;;;8.40;6.90;;;8.80;99.90;;;;;;4965417;28;20056;-73
2022/12/26 08:22:41;;;;;;;9.88;7.30;;;8.80;99.90;;;;;;4968277;28;20051;-74
2022/12/26 08:25:08;;;;;;;13.02;8.13;;;8.80;99.90;;;;;;4962420;28;20042;-74
2022/12/26 08:27:35;;;;;;;10.35;8.38;;;8.80;99.90;;;;;;4961091;28;20308;-74
2022/12/26 08:30:03;;;;;;;12.13;8.55;;;8.80;99.90;;;;;;4958615;28;21997;-74
2022/12/26 08:32:30;;;;;;;9.50;7.15;;;8.80;99.90;;;;;;4971402;28;20046;-74
2022/12/26 08:34:56;;;;;;;18.77;12.82;;;8.80;99.90;;;;;;4963319;28;20285;-74
2022/12/26 08:37:23;;;;;;;20.80;11.73;;;8.80;99.90;;;;;;4970663;28;20100;-74
2022/12/26 08:39:52;;;;;;;12.50;9.07;;;8.80;99.90;;;;;;4968470;28;20463;-74
2022/12/26 08:42:20;;;;;;;10.68;9.13;;;8.80;99.90;;;;;;4968326;28;20050;-74
2022/12/26 08:44:47;;;;;;;14.05;7.85;;;8.90;99.90;;;;;;4954202;28;20102;-74
2022/12/26 08:47:14;;;;;;;8.48;7.57;;;8.90;99.90;;;;;;4959505;28;20043;-74
2022/12/26 08:49:41;;;;;;;9.38;6.63;;;8.90;99.90;;;;;;4968529;28;20484;-74
2022/12/26 08:52:08;;;;;;;7.55;6.70;;;8.90;99.90;;;;;;4959532;28;20065;-74
2022/12/26 08:54:35;;;;;;;8.73;7.28;;;8.90;99.90;;;;;;4962528;28;20073;-73
2022/12/26 08:57:02;;;;;;;10.88;8.88;;;8.90;99.90;;;;;;4975912;28;20142;-73
2022/12/26 08:59:28;;;;;;;7.90;7.10;;;9.00;99.90;;;;;;4992729;28;20094;-74
2022/12/26 09:01:55;;;;;;;10.20;8.38;;;9.00;99.90;;;;;;4990248;28;20038;-73
2022/12/26 09:04:22;;;;;;;8.80;7.75;;;9.00;99.90;;;;;;4965335;28;20672;-74
2022/12/26 09:06:48;;;;;;;12.65;8.00;;;9.00;99.90;;;;;;4968497;28;20065;-74
2022/12/26 09:09:15;;;;;;;13.98;9.43;;;9.00;99.90;;;;;;4959408;28;20504;-74
2022/12/26 09:11:42;;;;;;;12.02;9.63;;;9.10;99.90;;;;;;4964224;28;20035;-73
2022/12/26 09:14:09;;;;;;;13.27;9.80;;;9.10;99.90;;;;;;4965485;28;20068;-74
2022/12/26 09:16:42;;;;;;;11.05;7.95;;;9.10;99.90;;;;;;4946721;28;20043;-74
2022/12/26 09:19:17;;;;;;;10.02;8.30;;;9.10;99.90;;;;;;4962434;28;20408;-74
2022/12/26 09:21:45;;;;;;;12.85;9.63;;;9.20;99.90;;;;;;4964966;28;20458;-73
2022/12/26 09:24:15;;;;;;;11.98;7.97;;;9.20;99.90;;;;;;4949007;28;20042;-74
2022/12/26 09:26:42;;;;;;;19.48;9.38;;;9.20;99.90;;;;;;4962665;28;20034;-74
2022/12/26 09:29:12;;;;;;;14.82;8.10;;;9.20;99.90;;;;;;4960109;28;20466;-74
2022/12/26 09:31:39;;;;;;;11.38;8.45;;;9.20;99.90;;;;;;4960857;28;20069;-74
2022/12/26 09:34:06;;;;;;;9.48;6.82;;;9.20;99.90;;;;;;4947451;28;20050;-74
2022/12/26 09:36:38;;;;;;;11.65;8.95;;;9.30;99.90;;;;;;4959677;28;20078;-74
2022/12/26 09:39:06;;;;;;;8.43;7.45;;;9.30;99.90;;;;;;4968020;28;20042;-73
2022/12/26 09:41:32;;;;;;;13.48;8.35;;;9.30;99.90;;;;;;4967968;28;20043;-74
2022/12/26 09:44:15;;;;;;;10.65;8.20;;;9.30;99.90;;;;;;4970154;28;20507;-73
2022/12/26 09:47:04;;;;;;;9.52;7.53;;;9.30;99.90;;;;;;4964718;28;20105;-73
2022/12/26 09:49:36;;;;;;;14.43;10.07;;;9.30;99.90;;;;;;4964683;28;20315;-73
2022/12/26 09:52:17;;;;;;;9.50;7.45;;;9.40;99.90;;;;;;4958882;28;20416;-73
2022/12/26 09:54:51;;;;;;;9.35;7.95;;;9.30;99.90;;;;;;4963332;28;20054;-73
2022/12/26 09:57:26;;;;;;;8.32;7.57;;;9.40;99.90;;;;;;4965948;28;20073;-73
2022/12/26 09:59:57;;;;;;;8.88;8.07;;;9.40;99.90;;;;;;4965073;28;20657;-73
2022/12/26 10:02:25;;;;;;;12.55;11.25;;;9.50;99.90;;;;;;4959020;28;20042;-73
2022/12/26 10:04:53;;;;;;;12.88;9.85;;;9.40;99.90;;;;;;4953520;28;20047;-73
2022/12/26 10:07:42;;;;;;;12.52;10.13;;;9.50;99.90;;;;;;4968513;28;20064;-73
2022/12/26 10:10:31;;;;;;;14.57;11.75;;;9.50;99.90;;;;;;4952858;28;20062;-73
2022/12/26 10:13:21;;;;;;;13.40;11.82;;;9.60;99.90;;;;;;4972590;28;20121;-74
2022/12/26 10:15:47;;;;;;;13.02;11.10;;;9.60;99.90;;;;;;4984391;28;20250;-74
2022/12/26 10:18:30;;;;;;;11.93;10.85;;;9.60;99.90;;;;;;4994496;28;20072;-74
2022/12/26 10:21:08;;;;;;;11.32;10.23;;;9.60;99.90;;;;;;4978936;28;20045;-74
2022/12/26 10:23:44;;;;;;;11.05;10.05;;;9.70;99.90;;;;;;4962363;28;20146;-74
2022/12/26 10:26:19;;;;;;;9.93;9.00;;;9.70;99.90;;;;;;4981806;28;20524;-74
2022/12/26 10:28:58;;;;;;;10.60;9.23;;;9.60;99.90;;;;;;4985500;28;20064;-75
2022/12/26 10:31:45;;;;;;;9.27;8.50;;;9.60;99.90;;;;;;4989662;28;20054;-74
2022/12/26 10:34:22;;;;;;;11.13;10.13;;;9.60;99.90;;;;;;4980894;28;20251;-74
2022/12/26 10:36:56;;;;;;;10.93;10.02;;;9.60;99.90;;;;;;4989349;28;20049;-76
2022/12/26 10:39:56;;;;;;;9.90;9.18;;;9.60;99.90;;;;;;4986785;28;20046;-76
2022/12/26 10:42:41;;;;;;;10.63;9.65;;;9.60;99.90;;;;;;4982021;28;20042;-76
2022/12/26 10:45:17;;;;;;;11.00;10.40;;;9.60;99.90;;;;;;4987821;28;20360;-76
2022/12/26 10:47:49;;;;;;;12.65;11.85;;;9.70;99.90;;;;;;4981046;28;20235;-76
2022/12/26 10:50:26;;;;;;;12.50;11.57;;;9.60;99.90;;;;;;4980965;28;20482;-75
2022/12/26 10:52:54;;;;;;;11.93;11.27;;;9.50;99.90;;;;;;4976721;28;22202;-74
2022/12/26 10:55:27;;;;;;;13.90;12.65;;;9.50;99.90;;;;;;4983319;28;20045;-75
2022/12/26 10:58:04;;;;;;;15.57;14.35;;;9.50;99.90;;;;;;4968316;28;20042;-74
2022/12/26 11:00:32;;;;;;;11.65;10.90;;;9.50;99.90;;;;;;4984236;28;20129;-75
2022/12/26 11:03:04;;;;;;;12.10;11.40;;;9.60;99.90;;;;;;4984672;28;20125;-74
2022/12/26 11:05:34;;;;;;;13.00;12.38;;;9.70;99.90;;;;;;4983308;28;20137;-74
2022/12/26 11:08:33;;;;;;;14.43;13.68;;;9.80;99.90;;;;;;4971796;28;20042;-74
2022/12/26 11:11:17;;;;;;;14.23;13.52;;;9.90;99.90;;;;;;4972745;28;20043;-73
2022/12/26 11:13:53;;;;;;;14.52;13.93;;;9.90;99.90;;;;;;4985338;28;20042;-73
2022/12/26 11:16:34;;;;;;;17.65;16.65;;;10.10;99.90;;;;;;4982107;28;20050;-74
2022/12/26 11:19:02;;;;;;;18.38;17.42;;;10.10;99.90;;;;;;4988341;28;20143;-74
2022/12/26 11:21:33;;;;;;;17.95;17.05;;;10.10;99.90;;;;;;4986010;28;20225;-73
2022/12/26 11:24:14;;;;;;;16.50;15.52;;;10.00;99.90;;;;;;4987014;28;20121;-74
2022/12/26 11:26:41;;;;;;;14.23;13.43;;;10.00;99.90;;;;;;5002390;28;20146;-73
2022/12/26 11:29:20;;;;;;;17.20;15.65;;;9.90;99.90;;;;;;4975855;28;20053;-74
2022/12/26 11:31:56;;;;;;;15.13;14.13;;;9.90;99.90;;;;;;4970768;28;20137;-74
2022/12/26 11:34:37;;;;;;;14.32;13.23;;;9.90;99.90;;;;;;4973736;28;20078;-74
2022/12/26 11:37:05;;;;;;;14.20;13.23;;;9.90;99.90;;;;;;4968414;28;21185;-74
2022/12/26 11:39:36;;;;;;;17.60;16.35;;;9.80;99.90;;;;;;4968675;28;20292;-73
2022/12/26 11:42:19;;;;;;;18.27;17.17;;;9.80;99.90;;;;;;4946999;28;21251;-73
2022/12/26 11:44:51;;;;;;;18.42;17.52;;;9.80;99.90;;;;;;4962943;28;20162;-74
2022/12/26 11:47:28;;;;;;;18.75;17.40;;;9.80;99.90;;;;;;4969636;28;20496;-74
2022/12/26 11:50:05;;;;;;;17.77;16.58;;;9.80;99.90;;;;;;4967217;28;20074;-74
2022/12/26 11:52:54;;;;;;;22.40;21.50;;;9.90;99.90;;;;;;4961542;28;20074;-73
2022/12/26 11:55:34;;;;;;;24.70;23.42;;;9.90;99.90;;;;;;4963521;28;20089;-74
2022/12/26 11:58:07;;;;;;;21.52;20.00;;;9.90;99.90;;;;;;4966334;28;20594;-74
2022/12/26 12:01:01;;;;;;;18.73;17.83;;;10.00;99.90;;;;;;4964584;28;20159;-74
2022/12/26 12:03:41;;;;;;;25.67;24.50;;;10.00;99.90;;;;;;4942160;28;20114;-74
2022/12/26 12:06:25;;;;;;;17.90;17.00;;;10.10;99.90;;;;;;4951441;28;20089;-74
2022/12/26 12:09:27;;;;;;;20.73;19.58;;;10.10;99.90;;;;;;4968541;28;20053;-74
2022/12/26 12:12:24;;;;;;;20.45;19.17;;;10.10;99.90;;;;;;4954895;28;20038;-74
2022/12/26 12:15:00;;;;;;;19.55;18.52;;;10.10;99.90;;;;;;4955428;28;20055;-74
2022/12/26 12:17:57;;;;;;;18.30;17.05;;;10.00;99.90;;;;;;4945467;28;20381;-74
2022/12/26 12:20:43;;;;;;;20.35;19.23;;;9.90;99.90;;;;;;4942506;28;20046;-73
2022/12/26 12:23:45;;;;;;;19.30;18.17;;;9.90;99.90;;;;;;4965873;28;20116;-73
2022/12/26 12:26:32;;;;;;;17.40;16.25;;;9.90;99.90;;;;;;4953096;28;20081;-74
2022/12/26 12:29:11;;;;;;;20.35;19.05;;;9.80;99.90;;;;;;4955041;28;20046;-74
2022/12/26 12:32:00;;;;;;;17.23;16.33;;;9.80;99.90;;;;;;4963310;28;20050;-73
2022/12/26 12:34:59;;;;;;;19.80;18.40;;;9.70;99.90;;;;;;4955753;28;20133;-73
2022/12/26 12:37:53;;;;;;;21.58;20.10;;;9.80;99.90;;;;;;4956487;28;20062;-74
2022/12/26 12:40:39;;;;;;;18.83;17.75;;;9.80;99.90;;;;;;4964623;28;20105;-73
2022/12/26 12:43:21;;;;;;;20.10;19.10;;;9.60;99.90;;;;;;4947800;28;20034;-73
2022/12/26 12:46:08;;;;;;;16.30;14.95;;;9.50;99.90;;;;;;4964623;28;20287;-74
2022/12/26 12:48:41;;;;;;;11.80;11.10;;;9.60;99.90;;;;;;4966180;28;20049;-74
2022/12/26 12:51:10;;;;;;;12.73;11.80;;;9.50;99.90;;;;;;4969110;28;20061;-74
2022/12/26 12:53:58;;;;;;;12.75;11.82;;;9.50;99.90;;;;;;4959318;28;20462;-73
2022/12/26 12:56:49;;;;;;;12.57;11.85;;;9.50;99.90;;;;;;4960138;28;20104;-74
2022/12/26 12:59:41;;;;;;;16.40;15.27;;;9.60;99.90;;;;;;4964155;28;20511;-73
2022/12/26 13:02:24;;;;;;;16.27;15.18;;;9.60;99.90;;;;;;4967128;28;20105;-73
2022/12/26 13:05:03;;;;;;;19.00;17.60;;;9.70;99.90;;;;;;4956721;28;20299;-74
2022/12/26 13:07:37;;;;;;;18.60;17.33;;;9.60;99.90;;;;;;4965683;28;20133;-73
2022/12/26 13:10:26;;;;;;;17.83;16.88;;;9.70;99.90;;;;;;4951506;28;20043;-73
2022/12/26 13:12:54;;;;;;;17.98;16.98;;;9.70;99.90;;;;;;4963069;28;20051;-75
2022/12/26 13:15:33;;;;;;;18.75;17.27;;;9.70;99.90;;;;;;4964065;28;20073;-75
2022/12/26 13:18:09;;;;;;;19.45;18.27;;;9.70;99.90;;;;;;4971140;28;20245;-76
2022/12/26 13:20:44;;;;;;;18.17;16.65;;;9.70;99.90;;;;;;4959069;28;20044;-75
2022/12/26 13:26:10;;;;;;;17.02;15.90;;;9.50;99.90;;;;;;4962753;28;19926;-73
2022/12/26 13:28:53;;;;;;;14.52;13.45;;;9.30;99.90;;;;;;4969437;28;20358;-73
2022/12/26 13:31:20;;;;;;;14.57;13.68;;;9.30;99.90;;;;;;4960309;28;20070;-73
2022/12/26 13:33:48;;;;;;;13.45;12.23;;;9.30;99.90;;;;;;4964903;28;20047;-73
2022/12/26 13:36:34;;;;;;;13.80;12.18;;;9.30;99.90;;;;;;4967856;28;20050;-73
2022/12/26 13:39:21;;;;;;;12.73;11.55;;;9.40;99.90;;;;;;4965487;28;20049;-73
2022/12/26 13:44:54;;;;;;;15.23;11.40;;;9.40;99.90;;;;;;4967776;28;20058;-76
2022/12/26 13:47:35;;;;;;;13.35;12.45;;;9.40;99.90;;;;;;4967960;28;20572;-75
2022/12/26 13:50:39;;;;;;;14.85;13.90;;;9.40;99.90;;;;;;4961960;28;20307;-76
2022/12/26 13:53:29;;;;;;;15.18;13.77;;;9.50;99.90;;;;;;4967925;28;20109;-76
2022/12/26 13:56:23;;;;;;;14.85;13.80;;;9.50;99.90;;;;;;4954618;28;20483;-73
2022/12/26 13:59:08;;;;;;;16.45;15.38;;;9.50;99.90;;;;;;4960293;28;20288;-73
2022/12/26 14:01:41;;;;;;;18.05;16.83;;;9.60;99.90;;;;;;4953196;28;20122;-74
2022/12/26 14:04:35;;;;;;;17.13;16.08;;;9.60;99.90;;;;;;4963410;28;20068;-73
2022/12/26 14:07:17;;;;;;;20.27;18.92;;;9.60;99.90;;;;;;4957736;28;20050;-73
2022/12/26 14:09:57;;;;;;;16.73;15.80;;;9.50;99.90;;;;;;4961647;28;20137;-73
2022/12/26 14:12:39;;;;;;;19.50;18.50;;;9.50;99.90;;;;;;4954759;28;20046;-73
2022/12/26 14:15:16;;;;;;;14.82;13.73;;;9.50;99.90;;;;;;4954622;28;20452;-73
2022/12/26 14:18:11;;;;;;;14.10;13.25;;;9.50;99.90;;;;;;4948464;28;20094;-73
2022/12/26 14:21:00;;;;;;;13.48;12.73;;;9.50;99.90;;;;;;4951516;28;20043;-73
2022/12/26 14:23:52;;;;;;;9.32;8.48;;;9.40;99.90;;;;;;4966406;28;20050;-75
2022/12/26 14:26:32;;;;;;;6.82;6.20;;;9.20;99.90;;;;;;4967453;28;20054;-75
2022/12/26 14:29:22;;;;;;;5.45;4.90;;;8.10;99.90;;;;;;4983974;28;20026;-77
2022/12/26 14:32:08;;;;;;;4.63;4.28;;;7.60;99.90;;;;;;4988197;28;20041;-76
2022/12/26 14:35:06;;;;;;;11.43;4.15;;;7.60;99.90;;;;;;4973870;28;21005;-77
2022/12/26 14:37:54;;;;;;;6.22;5.63;;;7.50;99.90;;;;;;4967943;28;20094;-75
2022/12/26 14:40:37;;;;;;;9.50;4.95;;;7.50;99.90;;;;;;4970075;28;20061;-75
2022/12/26 14:43:16;;;;;;;9.40;5.65;;;7.50;99.90;;;;;;4993134;28;20065;-75
2022/12/26 14:45:51;;;;;;;7.30;5.93;;;7.50;99.90;;;;;;4983482;28;20042;-75
2022/12/26 14:48:18;;;;;;;9.05;6.57;;;7.60;99.90;;;;;;4989386;28;20507;-75
2022/12/26 14:50:46;;;;;;;10.80;6.63;;;7.60;99.90;;;;;;4980107;28;20049;-74
2022/12/26 14:53:26;;;;;;;9.90;6.95;;;7.60;99.90;;;;;;4987565;28;20136;-75
2022/12/26 14:56:30;;;;;;;10.55;7.30;;;7.60;99.90;;;;;;4980501;28;20077;-75
2022/12/26 14:59:18;;;;;;;10.00;6.45;;;7.60;99.90;;;;;;4984687;28;20136;-75
2022/12/26 15:01:48;;;;;;;12.13;7.20;;;7.50;99.90;;;;;;4980062;28;20137;-75
2022/12/26 15:04:46;;;;;;;20.33;8.68;;;7.60;99.90;;;;;;4988212;28;20045;-74
2022/12/26 15:07:34;;;;;;;18.83;8.85;;;7.60;99.90;;;;;;4981206;28;20069;-76
2022/12/26 15:10:22;;;;;;;13.13;7.95;;;7.60;99.90;;;;;;4968326;28;20467;-75
2022/12/26 15:13:14;;;;;;;13.38;6.88;;;7.60;99.90;;;;;;4971880;28;20197;-74
2022/12/26 15:16:05;;;;;;;11.35;7.35;;;7.60;99.90;;;;;;4989022;28;20054;-74
2022/12/26 15:18:43;;;;;;;20.33;6.32;;;7.50;99.90;;;;;;4973174;28;20050;-74
2022/12/26 15:21:54;;;;;;;12.48;4.43;;;7.20;99.90;;;;;;4980206;28;20050;-74
2022/12/26 15:25:06;;;;;;;12.45;3.78;;;6.90;99.90;;;;;;4944901;28;20047;-76
2022/12/26 15:27:58;;;;;;;8.32;3.75;;;6.70;99.90;;;;;;4989005;28;20125;-76
2022/12/26 15:31:04;;;;;;;12.85;3.50;;;6.70;99.90;;;;;;4982541;28;20142;-76
2022/12/26 15:33:39;;;;;;;11.48;4.57;;;6.70;99.90;;;;;;4972683;28;20401;-76
2022/12/26 15:36:37;;;;;;;19.60;5.22;;;6.60;99.90;;;;;;4954111;28;21036;-74